createdAt,value
2023-04-10T00:00:33.228Z,99.90
2023-04-10T00:03:02.399Z,99.90
2023-04-10T00:05:29.644Z,99.90
2023-04-10T00:07:56.937Z,99.90
2023-04-10T00:10:26.470Z,99.90
2023-04-10T00:12:54.184Z,99.90
2023-04-10T00:15:21.485Z,99.90
2023-04-10T00:17:50.711Z,99.90
2023-04-10T00:20:17.864Z,99.90
2023-04-10T00:22:44.888Z,99.90
2023-04-10T00:25:11.997Z,99.90
2023-04-10T00:27:39.026Z,99.90
2023-04-10T00:30:07.567Z,99.90
2023-04-10T00:32:34.689Z,99.90
2023-04-10T00:35:01.854Z,99.90
2023-04-10T00:37:28.890Z,99.90
2023-04-10T00:39:56.389Z,99.90
2023-04-10T00:42:23.447Z,99.90
2023-04-10T00:44:50.714Z,99.90
2023-04-10T00:47:18.022Z,99.90
2023-04-10T00:49:45.424Z,99.90
2023-04-10T00:52:12.706Z,99.90
2023-04-10T00:54:40.326Z,99.90
2023-04-10T00:57:07.656Z,99.90
2023-04-10T00:59:35.683Z,99.90
2023-04-10T01:02:03.216Z,99.90
2023-04-10T01:04:32.030Z,99.90
2023-04-10T01:07:10.715Z,99.90
2023-04-10T01:09:48.179Z,99.90
2023-04-10T01:12:55.101Z,99.90
2023-04-10T01:15:26.557Z,99.90
2023-04-10T01:17:58.884Z,99.90
2023-04-10T01:20:31.942Z,99.90
2023-04-10T01:23:06.568Z,99.90
2023-04-10T01:25:47.480Z,99.90
2023-04-10T01:28:54.882Z,99.90
2023-04-10T01:31:31.334Z,99.90
2023-04-10T01:34:06.357Z,99.90
2023-04-10T01:36:38.252Z,99.90
2023-04-10T01:39:08.210Z,99.90
2023-04-10T01:41:36.259Z,99.90
2023-04-10T01:44:04.641Z,99.90
2023-04-10T01:46:32.991Z,99.90
2023-04-10T01:49:02.592Z,99.90
2023-04-10T01:51:31.483Z,99.90
2023-04-10T01:54:02.444Z,99.90
2023-04-10T01:56:30.216Z,99.90
2023-04-10T01:58:57.597Z,99.90
2023-04-10T02:01:29.770Z,99.90
2023-04-10T02:03:59.411Z,99.90
2023-04-10T02:06:32.042Z,99.90
2023-04-10T02:09:11.188Z,99.90
2023-04-10T02:11:45.093Z,99.90
2023-04-10T02:14:18.314Z,99.90
2023-04-10T02:16:45.769Z,99.90
2023-04-10T02:19:14.135Z,99.90
2023-04-10T02:21:44.613Z,99.90
2023-04-10T02:24:11.882Z,99.90
2023-04-10T02:26:49.330Z,99.90
2023-04-10T02:29:17.209Z,99.90
2023-04-10T02:31:45.966Z,99.90
2023-04-10T02:34:14.791Z,99.90
2023-04-10T02:36:41.924Z,99.90
2023-04-10T02:39:12.447Z,99.90
2023-04-10T02:41:47.633Z,99.90
2023-04-10T02:44:14.999Z,99.90
2023-04-10T02:46:43.183Z,99.90
2023-04-10T02:49:13.796Z,99.90
2023-04-10T02:51:41.109Z,99.90
2023-04-10T02:54:08.192Z,99.90
2023-04-10T02:56:36.594Z,99.90
2023-04-10T02:59:03.805Z,99.90
2023-04-10T03:01:32.184Z,99.90
2023-04-10T03:04:00.062Z,99.90
2023-04-10T03:06:31.626Z,99.90
2023-04-10T03:08:59.191Z,99.90
2023-04-10T03:11:27.707Z,99.90
2023-04-10T03:13:55.712Z,99.90
2023-04-10T03:16:23.146Z,99.90
2023-04-10T03:18:50.514Z,99.90
2023-04-10T03:21:17.678Z,99.90
2023-04-10T03:23:44.899Z,99.90
2023-04-10T03:26:12.096Z,99.90
2023-04-10T03:28:39.824Z,99.90
2023-04-10T03:31:10.777Z,99.90
2023-04-10T03:33:39.393Z,99.90
2023-04-10T03:36:07.593Z,99.90
2023-04-10T03:38:34.738Z,99.90
2023-04-10T03:41:02.624Z,99.90
2023-04-10T03:43:32.152Z,99.90
2023-04-10T03:46:01.839Z,99.90
2023-04-10T03:48:30.732Z,99.90
2023-04-10T03:50:58.490Z,99.90
2023-04-10T03:53:25.645Z,99.90
2023-04-10T03:55:54.345Z,99.90
2023-04-10T03:58:22.933Z,99.90
2023-04-10T04:00:51.605Z,99.90
2023-04-10T04:03:35.038Z,99.90
2023-04-10T04:06:22.134Z,99.90
2023-04-10T04:09:09.247Z,99.90
2023-04-10T04:11:46.870Z,99.90
2023-04-10T04:14:34.187Z,99.90
2023-04-10T04:17:21.355Z,99.90
2023-04-10T04:20:09.159Z,99.90
2023-04-10T04:22:43.669Z,99.90
2023-04-10T04:25:30.869Z,99.90
2023-04-10T04:28:05.868Z,99.90
2023-04-10T04:30:32.989Z,99.90
2023-04-10T04:33:11.619Z,99.90
2023-04-10T04:35:58.596Z,99.90
2023-04-10T04:38:38.866Z,99.90
2023-04-10T04:41:25.988Z,99.90
2023-04-10T04:44:06.822Z,99.90
2023-04-10T04:46:51.771Z,99.90
2023-04-10T04:49:18.784Z,99.90
2023-04-10T04:51:51.390Z,99.90
2023-04-10T04:54:38.379Z,99.90
2023-04-10T04:57:24.570Z,99.90
2023-04-10T05:00:12.053Z,99.90
2023-04-10T05:02:55.715Z,99.90
2023-04-10T05:05:35.735Z,99.90
2023-04-10T05:08:13.297Z,99.90
2023-04-10T05:11:00.591Z,99.90
2023-04-10T05:13:47.496Z,99.90
2023-04-10T05:16:23.925Z,99.90
2023-04-10T05:18:57.444Z,99.90
2023-04-10T05:21:44.552Z,99.90
2023-04-10T05:24:32.019Z,99.90
2023-04-10T05:27:12.448Z,99.90
2023-04-10T05:29:59.538Z,99.90
2023-04-10T05:32:46.704Z,99.90
2023-04-10T05:35:33.683Z,99.90
2023-04-10T05:38:13.969Z,99.90
2023-04-10T05:40:48.479Z,99.90
2023-04-10T05:43:35.694Z,99.90
2023-04-10T05:46:11.828Z,99.90
2023-04-10T05:48:49.100Z,99.90
2023-04-10T05:51:21.950Z,99.90
2023-04-10T05:54:06.618Z,99.90
2023-04-10T05:56:53.698Z,99.90
2023-04-10T05:59:37.667Z,99.90
2023-04-10T06:02:25.122Z,99.90
2023-04-10T06:04:52.491Z,99.90
2023-04-10T06:07:20.386Z,99.90
2023-04-10T06:09:47.604Z,99.90
2023-04-10T06:12:14.679Z,99.90
2023-04-10T06:14:42.632Z,99.90
2023-04-10T06:17:10.128Z,99.90
2023-04-10T06:19:37.241Z,99.90
2023-04-10T06:22:04.959Z,99.90
2023-04-10T06:24:32.371Z,99.90
2023-04-10T06:26:59.781Z,99.90
2023-04-10T06:29:26.873Z,99.90
2023-04-10T06:31:54.085Z,98.30
2023-04-10T06:34:21.671Z,94.20
2023-04-10T06:37:00.895Z,90.70
2023-04-10T06:39:27.955Z,84.60
2023-04-10T06:41:55.069Z,80.50
2023-04-10T06:44:32.597Z,75.80
2023-04-10T06:46:59.808Z,73.60
2023-04-10T06:49:26.893Z,69.70
2023-04-10T06:51:53.917Z,67.50
2023-04-10T06:54:21.140Z,67.10
2023-04-10T06:56:48.219Z,65.50
2023-04-10T06:59:15.860Z,66.30
2023-04-10T07:01:42.978Z,67.30
2023-04-10T07:04:10.184Z,65.60
2023-04-10T07:06:37.511Z,65.70
2023-04-10T07:09:04.574Z,65.30
2023-04-10T07:11:31.815Z,64.90
2023-04-10T07:13:59.043Z,61.90
2023-04-10T07:16:26.389Z,62.10
2023-04-10T07:18:53.909Z,62.00
2023-04-10T07:21:21.517Z,60.80
2023-04-10T07:23:49.225Z,61.40
2023-04-10T07:26:17.014Z,58.90
2023-04-10T07:28:44.409Z,58.60
2023-04-10T07:31:12.001Z,59.40
2023-04-10T07:33:39.743Z,58.50
2023-04-10T07:36:07.794Z,58.00
2023-04-10T07:38:35.741Z,57.00
2023-04-10T07:41:03.293Z,57.60
2023-04-10T07:43:30.726Z,56.80
2023-04-10T07:45:58.004Z,56.40
2023-04-10T07:48:25.577Z,56.40
2023-04-10T07:50:53.440Z,56.90
2023-04-10T07:53:20.886Z,57.70
2023-04-10T07:55:50.293Z,57.60
2023-04-10T07:58:17.380Z,57.30
2023-04-10T08:00:44.679Z,56.70
2023-04-10T08:03:13.727Z,55.00
2023-04-10T08:05:41.051Z,56.50
2023-04-10T08:08:08.015Z,55.40
2023-04-10T08:10:38.049Z,54.40
2023-04-10T08:13:06.207Z,55.50
2023-04-10T08:15:33.628Z,54.20
2023-04-10T08:18:00.822Z,55.00
2023-04-10T08:20:28.464Z,52.20
2023-04-10T08:22:58.880Z,51.60
2023-04-10T08:25:31.234Z,51.50
2023-04-10T08:28:00.540Z,50.10
2023-04-10T08:30:27.606Z,53.70
2023-04-10T08:32:54.639Z,52.70
2023-04-10T08:35:21.793Z,51.60
2023-04-10T08:37:53.587Z,51.00
2023-04-10T08:40:29.533Z,49.30
2023-04-10T08:42:56.768Z,53.00
2023-04-10T08:45:23.867Z,56.30
2023-04-10T08:47:53.244Z,57.80
2023-04-10T08:50:21.718Z,58.80
2023-04-10T08:52:53.084Z,62.30
2023-04-10T08:55:21.511Z,61.90
2023-04-10T08:57:58.043Z,61.70
2023-04-10T09:00:29.239Z,61.00
2023-04-10T09:02:58.557Z,64.60
2023-04-10T09:05:27.725Z,62.20
2023-04-10T09:07:55.242Z,63.30
2023-04-10T09:10:22.948Z,60.80
2023-04-10T09:12:50.489Z,63.80
2023-04-10T09:15:17.764Z,64.70
2023-04-10T09:18:04.729Z,61.40
2023-04-10T09:20:32.776Z,61.00
2023-04-10T09:22:59.897Z,61.60
2023-04-10T09:25:35.534Z,60.10
2023-04-10T09:28:05.678Z,64.10
2023-04-10T09:30:37.134Z,62.90
2023-04-10T09:33:20.717Z,61.50
2023-04-10T09:35:47.875Z,61.30
2023-04-10T09:38:20.600Z,59.60
2023-04-10T09:40:48.974Z,65.50
2023-04-10T09:43:19.966Z,64.60
2023-04-10T09:45:48.598Z,59.90
2023-04-10T09:48:16.231Z,62.30
2023-04-10T09:50:43.684Z,60.60
2023-04-10T09:53:13.028Z,63.00
2023-04-10T09:55:42.451Z,66.10
2023-04-10T09:58:11.092Z,59.40
2023-04-10T10:00:43.886Z,61.20
2023-04-10T10:03:15.461Z,64.60
2023-04-10T10:05:46.493Z,61.10
2023-04-10T10:08:15.009Z,60.40
2023-04-10T10:10:54.379Z,61.30
2023-04-10T10:13:42.522Z,67.40
2023-04-10T10:16:18.142Z,66.40
2023-04-10T10:18:54.150Z,60.40
2023-04-10T10:21:23.331Z,66.60
2023-04-10T10:23:54.253Z,65.70
2023-04-10T10:26:23.728Z,61.50
2023-04-10T10:28:53.760Z,64.00
2023-04-10T10:31:23.778Z,61.50
2023-04-10T10:33:52.873Z,63.90
2023-04-10T10:36:20.905Z,65.20
2023-04-10T10:38:59.893Z,65.90
2023-04-10T10:41:35.772Z,69.20
2023-04-10T10:44:12.735Z,64.80
2023-04-10T10:46:44.210Z,68.40
2023-04-10T10:49:11.259Z,65.00
2023-04-10T10:51:48.166Z,63.60
2023-04-10T10:54:34.233Z,59.80
2023-04-10T10:57:03.112Z,59.10
2023-04-10T10:59:49.990Z,58.60
2023-04-10T11:02:18.656Z,62.50
2023-04-10T11:04:47.652Z,64.00
2023-04-10T11:07:16.647Z,63.80
2023-04-10T11:09:50.581Z,62.20
2023-04-10T11:12:21.570Z,67.00
2023-04-10T11:15:06.317Z,65.50
2023-04-10T11:17:51.253Z,64.40
2023-04-10T11:20:22.039Z,66.00
2023-04-10T11:23:10.198Z,66.70
2023-04-10T11:25:54.699Z,68.50
2023-04-10T11:28:38.573Z,66.20
2023-04-10T11:31:22.967Z,66.90
2023-04-10T11:34:02.027Z,64.60
2023-04-10T11:36:29.711Z,62.60
2023-04-10T11:39:01.003Z,64.60
2023-04-10T11:41:30.647Z,63.30
2023-04-10T11:43:59.443Z,67.20
2023-04-10T11:46:26.851Z,70.30
2023-04-10T11:49:00.753Z,72.10
2023-04-10T11:51:28.526Z,63.00
2023-04-10T11:54:13.929Z,66.80
2023-04-10T11:56:43.327Z,65.00
2023-04-10T11:59:13.407Z,66.20
2023-04-10T12:01:43.123Z,60.30
2023-04-10T12:04:19.135Z,64.60
2023-04-10T12:06:48.901Z,63.90
2023-04-10T12:09:17.573Z,61.60
2023-04-10T12:12:03.724Z,58.40
2023-04-10T12:14:33.117Z,58.00
2023-04-10T12:17:01.502Z,62.70
2023-04-10T12:19:29.418Z,68.50
2023-04-10T12:21:58.329Z,63.20
2023-04-10T12:24:45.409Z,67.30
2023-04-10T12:27:20.968Z,70.30
2023-04-10T12:29:57.182Z,68.30
2023-04-10T12:32:25.749Z,68.50
2023-04-10T12:34:57.402Z,64.20
2023-04-10T12:37:25.974Z,63.00
2023-04-10T12:39:53.175Z,63.90
2023-04-10T12:42:22.843Z,65.90
2023-04-10T12:44:55.206Z,71.50
2023-04-10T12:47:23.290Z,61.50
2023-04-10T12:50:06.393Z,64.10
2023-04-10T12:52:34.453Z,60.80
2023-04-10T12:55:18.878Z,62.10
2023-04-10T12:57:47.769Z,61.40
2023-04-10T13:00:17.141Z,66.70
2023-04-10T13:02:44.801Z,64.90
2023-04-10T13:05:12.679Z,66.60
2023-04-10T13:07:41.226Z,63.50
2023-04-10T13:10:09.101Z,67.80
2023-04-10T13:12:38.006Z,67.30
2023-04-10T13:15:07.718Z,64.70
2023-04-10T13:17:35.435Z,65.60
2023-04-10T13:20:03.069Z,67.70
2023-04-10T13:22:30.052Z,66.40
2023-04-10T13:24:57.231Z,65.20
2023-04-10T13:27:24.249Z,60.90
2023-04-10T13:29:51.379Z,62.90
2023-04-10T13:32:18.429Z,61.00
2023-04-10T13:34:45.500Z,61.50
2023-04-10T13:37:13.778Z,65.30
2023-04-10T13:39:41.093Z,64.40
2023-04-10T13:42:08.164Z,65.70
2023-04-10T13:44:35.256Z,63.00
2023-04-10T13:47:02.420Z,62.10
2023-04-10T13:49:30.595Z,64.40
2023-04-10T13:51:58.224Z,64.40
2023-04-10T13:54:26.513Z,64.10
2023-04-10T13:56:55.134Z,66.00
2023-04-10T13:59:22.898Z,62.70
2023-04-10T14:01:53.050Z,59.60
2023-04-10T14:04:20.643Z,58.20
2023-04-10T14:06:48.560Z,57.50
2023-04-10T14:09:17.489Z,63.00
2023-04-10T14:11:44.769Z,57.10
2023-04-10T14:14:12.879Z,56.60
2023-04-10T14:16:40.432Z,58.20
2023-04-10T14:19:07.821Z,60.00
2023-04-10T14:21:35.460Z,60.70
2023-04-10T14:24:03.270Z,59.80
2023-04-10T14:26:31.730Z,66.40
2023-04-10T14:28:59.160Z,64.50
2023-04-10T14:31:29.443Z,63.80
2023-04-10T14:33:57.360Z,64.00
2023-04-10T14:36:24.976Z,65.30
2023-04-10T14:38:52.595Z,67.10
2023-04-10T14:41:21.042Z,67.30
2023-04-10T14:43:48.966Z,66.30
2023-04-10T14:46:16.286Z,67.70
2023-04-10T14:48:44.028Z,69.00
2023-04-10T14:51:13.385Z,70.60
2023-04-10T14:53:40.868Z,68.40
2023-04-10T14:56:12.458Z,68.60
2023-04-10T14:58:40.517Z,70.50
2023-04-10T15:01:10.788Z,67.90
2023-04-10T15:03:38.545Z,65.40
2023-04-10T15:06:07.343Z,67.20
2023-04-10T15:08:34.987Z,69.60
2023-04-10T15:11:05.526Z,71.60
2023-04-10T15:13:34.082Z,68.40
2023-04-10T15:16:01.516Z,66.70
2023-04-10T15:18:28.721Z,65.50
2023-04-10T15:20:56.147Z,64.00
2023-04-10T15:23:23.481Z,62.70
2023-04-10T15:25:51.245Z,64.00
2023-04-10T15:28:18.465Z,63.70
2023-04-10T15:30:45.532Z,64.80
2023-04-10T15:33:12.982Z,65.10
2023-04-10T15:35:40.258Z,64.50
2023-04-10T15:38:07.589Z,64.10
2023-04-10T15:40:37.055Z,63.70
2023-04-10T15:43:04.307Z,64.70
2023-04-10T15:45:31.413Z,63.50
2023-04-10T15:48:01.401Z,62.80
2023-04-10T15:50:28.747Z,63.20
2023-04-10T15:52:55.936Z,64.20
2023-04-10T15:55:23.112Z,65.40
2023-04-10T15:57:50.157Z,63.60
2023-04-10T16:00:17.909Z,64.80
2023-04-10T16:02:45.665Z,64.90
2023-04-10T16:05:13.158Z,66.30
2023-04-10T16:07:42.291Z,66.10
2023-04-10T16:10:09.904Z,66.30
2023-04-10T16:12:37.936Z,66.40
2023-04-10T16:15:08.204Z,66.40
2023-04-10T16:17:35.760Z,66.10
2023-04-10T16:20:07.634Z,66.00
2023-04-10T16:22:34.829Z,66.20
2023-04-10T16:27:32.356Z,66.60
2023-04-10T16:29:59.556Z,66.80
2023-04-10T16:32:26.762Z,69.80
2023-04-10T16:34:53.971Z,69.30
2023-04-10T16:37:21.031Z,69.80
2023-04-10T16:39:48.254Z,69.70
2023-04-10T16:42:15.385Z,67.70
2023-04-10T16:44:42.471Z,69.10
2023-04-10T16:47:09.585Z,68.30
2023-04-10T16:49:37.069Z,68.40
2023-04-10T16:52:04.057Z,68.90
2023-04-10T16:54:31.299Z,69.60
2023-04-10T16:56:58.371Z,69.90
2023-04-10T16:59:25.485Z,69.20
2023-04-10T17:01:52.672Z,70.00
2023-04-10T17:04:20.578Z,72.60
2023-04-10T17:06:47.831Z,72.20
2023-04-10T17:09:14.988Z,72.20
2023-04-10T17:11:42.315Z,72.30
2023-04-10T17:14:10.627Z,76.60
2023-04-10T17:16:37.828Z,84.80
2023-04-10T17:19:05.356Z,86.40
2023-04-10T17:21:32.543Z,88.10
2023-04-10T17:23:59.688Z,90.40
2023-04-10T17:26:26.793Z,90.10
2023-04-10T17:28:54.226Z,90.60
2023-04-10T17:31:21.559Z,90.50
2023-04-10T17:33:48.841Z,89.20
2023-04-10T17:36:16.012Z,86.30
2023-04-10T17:38:43.252Z,86.90
2023-04-10T17:41:13.784Z,87.90
2023-04-10T17:43:41.447Z,90.00
2023-04-10T17:46:14.613Z,90.80
2023-04-10T17:48:43.198Z,91.80
2023-04-10T17:51:12.026Z,92.50
2023-04-10T17:53:39.411Z,93.10
2023-04-10T17:56:07.061Z,93.90
2023-04-10T17:58:34.668Z,94.30
2023-04-10T18:01:01.965Z,93.90
2023-04-10T18:03:29.202Z,94.80
2023-04-10T18:05:56.482Z,94.40
2023-04-10T18:08:24.136Z,93.40
2023-04-10T18:10:51.183Z,94.10
2023-04-10T18:13:18.473Z,95.80
2023-04-10T18:15:46.079Z,95.90
2023-04-10T18:18:13.609Z,96.10
2023-04-10T18:20:41.080Z,96.80
2023-04-10T18:23:08.494Z,97.20
2023-04-10T18:25:36.216Z,98.20
2023-04-10T18:28:14.268Z,97.80
2023-04-10T18:30:43.623Z,97.70
2023-04-10T18:33:11.769Z,97.80
2023-04-10T18:35:39.282Z,99.30
2023-04-10T18:38:07.169Z,99.10
2023-04-10T18:40:36.951Z,99.90
2023-04-10T18:43:04.669Z,99.90
2023-04-10T18:45:34.630Z,99.90
2023-04-10T18:48:02.492Z,99.90
2023-04-10T18:50:31.000Z,99.90
2023-04-10T18:52:58.444Z,99.90
2023-04-10T18:55:26.128Z,99.90
2023-04-10T18:57:53.505Z,99.90
2023-04-10T19:00:21.180Z,99.90
2023-04-10T19:02:48.693Z,99.90
2023-04-10T19:05:17.013Z,99.90
2023-04-10T19:07:56.578Z,99.90
2023-04-10T19:10:30.636Z,99.90
2023-04-10T19:12:58.075Z,99.90
2023-04-10T19:15:25.809Z,99.90
2023-04-10T19:17:54.752Z,99.90
2023-04-10T19:20:49.279Z,99.90
2023-04-10T19:23:11.843Z,99.90
2023-04-10T19:25:39.165Z,99.90
2023-04-10T19:28:07.030Z,99.90
2023-04-10T19:30:34.582Z,99.90
2023-04-10T19:33:01.634Z,99.90
2023-04-10T19:35:28.872Z,99.90
2023-04-10T19:37:57.849Z,99.90
2023-04-10T19:40:25.541Z,99.90
2023-04-10T19:42:52.902Z,99.90
2023-04-10T19:45:22.297Z,99.90
2023-04-10T19:47:51.382Z,99.90
2023-04-10T19:50:19.636Z,99.90
2023-04-10T19:52:47.342Z,99.90
2023-04-10T19:55:16.926Z,99.90
2023-04-10T19:57:46.380Z,99.90
2023-04-10T20:00:14.932Z,99.90
2023-04-10T20:02:42.955Z,99.90
2023-04-10T20:05:11.330Z,99.90
2023-04-10T20:07:38.884Z,99.90
2023-04-10T20:10:06.754Z,99.90
2023-04-10T20:12:34.753Z,99.90
2023-04-10T20:15:03.994Z,99.90
2023-04-10T20:17:31.905Z,99.90
2023-04-10T20:19:59.399Z,99.90
2023-04-10T20:22:26.896Z,99.90
2023-04-10T20:24:54.477Z,99.90
2023-04-10T20:27:21.526Z,99.90
2023-04-10T20:29:48.613Z,99.90
2023-04-10T20:32:15.937Z,99.90
2023-04-10T20:34:43.052Z,99.90
2023-04-10T20:37:10.939Z,99.90
2023-04-10T20:39:38.428Z,99.90
2023-04-10T20:42:06.969Z,99.90
2023-04-10T20:44:38.010Z,99.90
2023-04-10T20:47:06.993Z,99.90
2023-04-10T20:49:34.240Z,99.90
2023-04-10T20:52:02.170Z,99.90
2023-04-10T20:54:29.956Z,99.90
2023-04-10T20:57:00.372Z,99.90
2023-04-10T20:59:28.377Z,99.90
2023-04-10T21:01:55.937Z,99.90
2023-04-10T21:04:23.162Z,99.90
2023-04-10T21:06:51.022Z,99.90
2023-04-10T21:09:18.314Z,99.90
2023-04-10T21:11:45.521Z,99.90
2023-04-10T21:14:13.525Z,99.90
2023-04-10T21:16:42.714Z,99.90
2023-04-10T21:19:09.955Z,99.90
2023-04-10T21:21:37.221Z,99.90
2023-04-10T21:24:04.718Z,99.90
2023-04-10T21:26:31.785Z,99.90
2023-04-10T21:28:58.878Z,99.90
2023-04-10T21:31:26.261Z,99.90
2023-04-10T21:33:53.322Z,99.90
2023-04-10T21:36:20.870Z,99.90
2023-04-10T21:38:48.085Z,99.90
2023-04-10T21:41:15.551Z,99.90
2023-04-10T21:43:43.261Z,99.90
2023-04-10T21:46:11.077Z,99.90
2023-04-10T21:48:38.319Z,99.90
2023-04-10T21:51:05.903Z,99.90
2023-04-10T21:53:33.000Z,99.90
2023-04-10T21:55:59.993Z,99.90
2023-04-10T21:58:27.181Z,99.90
2023-04-10T22:00:54.566Z,99.90
2023-04-10T22:03:22.391Z,99.90
2023-04-10T22:05:50.684Z,99.90
2023-04-10T22:08:20.010Z,99.90
2023-04-10T22:10:48.155Z,99.90
2023-04-10T22:13:27.351Z,99.90
2023-04-10T22:15:58.274Z,99.90
2023-04-10T22:18:25.478Z,99.90
2023-04-10T22:20:52.650Z,99.90
2023-04-10T22:23:19.745Z,99.90
2023-04-10T22:25:46.922Z,99.90
2023-04-10T22:28:14.461Z,99.90
2023-04-10T22:30:41.818Z,99.90
2023-04-10T22:33:08.976Z,99.90
2023-04-10T22:35:36.106Z,99.90
2023-04-10T22:38:04.214Z,99.90
2023-04-10T22:40:31.481Z,99.90
2023-04-10T22:42:58.562Z,99.90
2023-04-10T22:45:25.708Z,99.90
2023-04-10T22:47:52.768Z,99.90
2023-04-10T22:50:21.095Z,99.90
2023-04-10T22:52:48.221Z,99.90
2023-04-10T22:55:15.347Z,99.90
2023-04-10T22:57:42.501Z,99.90
2023-04-10T23:00:09.893Z,99.90
2023-04-10T23:02:37.186Z,99.90
2023-04-10T23:05:04.663Z,99.90
2023-04-10T23:07:31.795Z,99.90
2023-04-10T23:09:59.654Z,99.90
2023-04-10T23:12:27.116Z,99.90
2023-04-10T23:14:54.255Z,99.90
2023-04-10T23:17:21.335Z,99.90
2023-04-10T23:19:48.417Z,99.90
2023-04-10T23:22:15.641Z,99.90
2023-04-10T23:24:42.775Z,99.90
2023-04-10T23:27:09.932Z,99.90
2023-04-10T23:29:37.131Z,99.90
2023-04-10T23:32:04.252Z,99.90
2023-04-10T23:34:31.280Z,99.90
2023-04-10T23:36:58.344Z,99.90
2023-04-10T23:39:25.424Z,99.90
2023-04-10T23:41:52.803Z,99.90
2023-04-10T23:44:19.962Z,99.90
2023-04-10T23:46:47.082Z,99.90
2023-04-10T23:49:14.257Z,99.90
2023-04-10T23:51:41.301Z,99.90
2023-04-10T23:54:08.552Z,99.90
2023-04-10T23:56:35.527Z,99.90
2023-04-10T23:59:02.554Z,99.90
